createdAt,value
2018-03-18T00:00:50.693Z,1000.17
2018-03-18T00:01:50.666Z,1000.19
2018-03-18T00:02:50.637Z,1000.21
2018-03-18T00:03:50.613Z,1000.29
2018-03-18T00:04:50.585Z,1000.17
2018-03-18T00:05:50.557Z,1000.22
2018-03-18T00:06:50.532Z,1000.15
2018-03-18T00:07:50.506Z,1000.18
2018-03-18T00:08:50.484Z,1000.21
2018-03-18T00:09:50.457Z,1000.2
2018-03-18T00:10:50.427Z,1000.21
2018-03-18T00:11:50.401Z,1000.26
2018-03-18T00:12:50.375Z,1000.18
2018-03-18T00:13:50.390Z,1000.27
2018-03-18T00:14:50.321Z,1000.28
2018-03-18T00:15:50.298Z,1000.23
2018-03-18T00:16:50.268Z,1000.29
2018-03-18T00:17:50.244Z,1000.26
2018-03-18T00:18:50.224Z,1000.28
2018-03-18T00:19:50.191Z,1000.29
2018-03-18T00:20:50.165Z,1000.2
2018-03-18T00:21:50.142Z,1000.33
2018-03-18T00:22:50.110Z,1000.22
2018-03-18T00:23:50.088Z,1000.35
2018-03-18T00:24:50.068Z,1000.35
2018-03-18T00:25:50.034Z,1000.25
2018-03-18T00:26:50.005Z,1000.34
2018-03-18T00:27:49.983Z,1000.3
2018-03-18T00:28:49.954Z,1000.38
2018-03-18T00:29:49.986Z,1000.25
2018-03-18T00:30:49.952Z,1000.32
2018-03-18T00:31:49.875Z,1000.28
2018-03-18T00:32:49.849Z,1000.31
2018-03-18T00:33:49.827Z,1000.38
2018-03-18T00:34:49.796Z,1000.3
2018-03-18T00:35:49.774Z,1000.34
2018-03-18T00:36:49.743Z,1000.28
2018-03-18T00:37:49.718Z,1000.41
2018-03-18T00:38:49.704Z,1000.44
2018-03-18T00:39:49.665Z,1000.39
2018-03-18T00:40:49.643Z,1000.33
2018-03-18T00:41:49.615Z,1000.29
2018-03-18T00:42:49.590Z,1000.44
2018-03-18T00:43:49.561Z,1000.45
2018-03-18T00:44:49.535Z,1000.42
2018-03-18T00:45:49.508Z,1000.43
2018-03-18T00:46:49.483Z,1000.41
2018-03-18T00:47:49.456Z,1000.42
2018-03-18T00:48:49.431Z,1000.45
2018-03-18T00:49:49.403Z,1000.43
2018-03-18T00:50:49.376Z,1000.39
2018-03-18T00:51:49.349Z,1000.35
2018-03-18T00:52:49.323Z,1000.38
2018-03-18T00:53:49.298Z,1000.44
2018-03-18T00:54:49.271Z,1000.49
2018-03-18T00:55:49.252Z,1000.41
2018-03-18T00:56:49.219Z,1000.4
2018-03-18T00:57:49.198Z,1000.48
2018-03-18T00:58:49.167Z,1000.42
2018-03-18T00:59:49.139Z,1000.45
2018-03-18T01:00:49.113Z,1000.43
2018-03-18T01:01:49.088Z,1000.44
2018-03-18T01:02:49.060Z,1000.41
2018-03-18T01:03:49.032Z,1000.35
2018-03-18T01:04:49.008Z,1000.44
2018-03-18T01:05:48.984Z,1000.42
2018-03-18T01:06:48.976Z,1000.36
2018-03-18T01:07:49.019Z,1000.39
2018-03-18T01:08:48.906Z,1000.35
2018-03-18T01:09:48.877Z,1000.38
2018-03-18T01:10:48.916Z,1000.46
2018-03-18T01:11:48.845Z,1000.45
2018-03-18T01:12:48.852Z,1000.45
2018-03-18T01:13:48.772Z,1000.44
2018-03-18T01:14:48.751Z,1000.37
2018-03-18T01:15:48.728Z,1000.46
2018-03-18T01:16:48.692Z,1000.5
2018-03-18T01:17:48.666Z,1000.42
2018-03-18T01:18:48.640Z,1000.43
2018-03-18T01:19:48.615Z,1000.42
2018-03-18T01:20:48.587Z,1000.49
2018-03-18T01:21:48.559Z,1000.42
2018-03-18T01:22:48.540Z,1000.41
2018-03-18T01:23:48.506Z,1000.42
2018-03-18T01:24:48.482Z,1000.43
2018-03-18T01:25:48.458Z,1000.4
2018-03-18T01:26:48.429Z,1000.44
2018-03-18T01:27:48.402Z,1000.42
2018-03-18T01:28:48.375Z,1000.33
2018-03-18T01:29:48.349Z,1000.41
2018-03-18T01:30:48.322Z,1000.42
2018-03-18T01:31:48.299Z,1000.4
2018-03-18T01:32:48.274Z,1000.38
2018-03-18T01:33:48.299Z,1000.31
2018-03-18T01:34:48.216Z,1000.37
2018-03-18T01:35:48.255Z,1000.35
2018-03-18T01:36:48.161Z,1000.34
2018-03-18T01:37:48.137Z,1000.33
2018-03-18T01:38:48.208Z,1000.23
2018-03-18T01:39:48.082Z,1000.29
2018-03-18T01:40:48.061Z,1000.23
2018-03-18T01:41:48.032Z,1000.36
2018-03-18T01:42:48.051Z,1000.34
2018-03-18T01:43:47.977Z,1000.24
2018-03-18T01:44:47.951Z,1000.22
2018-03-18T01:45:47.926Z,1000.22
2018-03-18T01:46:47.897Z,1000.27
2018-03-18T01:47:47.884Z,1000.27
2018-03-18T01:48:47.897Z,1000.25
2018-03-18T01:49:47.822Z,1000.27
2018-03-18T01:50:47.995Z,1000.28
2018-03-18T01:51:47.765Z,1000.27
2018-03-18T01:52:47.758Z,1000.25
2018-03-18T01:53:47.712Z,1000.3
2018-03-18T01:54:47.685Z,1000.17
2018-03-18T01:55:47.665Z,1000.18
2018-03-18T01:56:47.633Z,1000.23
2018-03-18T01:57:47.604Z,1000.17
2018-03-18T01:58:47.581Z,1000.21
2018-03-18T01:59:47.551Z,1000.22
2018-03-18T02:00:47.526Z,1000.13
2018-03-18T02:01:47.501Z,1000.22
2018-03-18T02:02:47.479Z,1000.19
2018-03-18T02:03:47.445Z,1000.06
2018-03-18T02:04:47.426Z,1000.14
2018-03-18T02:05:47.396Z,1000.2
2018-03-18T02:06:47.418Z,1000.26
2018-03-18T02:07:47.346Z,1000.2
2018-03-18T02:08:47.314Z,1000.23
2018-03-18T02:09:47.294Z,1000.12
2018-03-18T02:10:47.274Z,1000.2
2018-03-18T02:11:47.233Z,1000.19
2018-03-18T02:12:47.206Z,1000.2
2018-03-18T02:13:47.226Z,1000.26
2018-03-18T02:14:47.152Z,1000.13
2018-03-18T02:15:47.127Z,1000.18
2018-03-18T02:16:47.097Z,1000.19
2018-03-18T02:17:47.078Z,1000.16
2018-03-18T02:18:47.121Z,1000.18
2018-03-18T02:19:47.017Z,1000.23
2018-03-18T02:20:46.997Z,1000.12
2018-03-18T02:21:46.969Z,1000.19
2018-03-18T02:22:46.945Z,1000.15
2018-03-18T02:23:46.916Z,1000.1
2018-03-18T02:24:46.889Z,1000.16
2018-03-18T02:25:46.860Z,1000.22
2018-03-18T02:26:46.831Z,1000.17
2018-03-18T02:27:46.807Z,1000.21
2018-03-18T02:28:46.784Z,1000.26
2018-03-18T02:29:46.754Z,1000.12
2018-03-18T02:30:46.727Z,1000.22
2018-03-18T02:31:46.699Z,1000.21
2018-03-18T02:32:46.676Z,1000.17
2018-03-18T02:33:46.648Z,1000.08
2018-03-18T02:34:46.620Z,1000.08
2018-03-18T02:35:46.596Z,1000.09
2018-03-18T02:36:46.628Z,1000.07
2018-03-18T02:37:46.538Z,1000.03
2018-03-18T02:38:46.514Z,999.96
2018-03-18T02:39:46.491Z,1000.04
2018-03-18T02:40:46.489Z,1000.01
2018-03-18T02:41:46.436Z,1000.06
2018-03-18T02:42:46.421Z,1000.06
2018-03-18T02:43:46.430Z,1000.03
2018-03-18T02:44:46.356Z,1000.05
2018-03-18T02:45:46.326Z,1000.01
2018-03-18T02:46:46.304Z,999.98
2018-03-18T02:47:46.279Z,1000
2018-03-18T02:48:46.245Z,999.97
2018-03-18T02:49:46.218Z,999.94
2018-03-18T02:50:46.191Z,1000.05
2018-03-18T02:51:46.172Z,999.99
2018-03-18T02:52:46.141Z,999.99
2018-03-18T02:53:46.132Z,999.99
2018-03-18T02:54:46.086Z,999.95
2018-03-18T02:55:46.087Z,999.93
2018-03-18T02:56:46.033Z,1000.03
2018-03-18T02:57:46.003Z,999.91
2018-03-18T02:58:45.980Z,999.9
2018-03-18T02:59:45.955Z,999.99
2018-03-18T03:00:45.924Z,999.98
2018-03-18T03:01:45.904Z,999.96
2018-03-18T03:02:45.875Z,1000.01
2018-03-18T03:03:45.878Z,1000.03
2018-03-18T03:04:45.877Z,999.93
2018-03-18T03:05:45.824Z,1000.01
2018-03-18T03:06:45.768Z,999.99
2018-03-18T03:07:45.738Z,1000.01
2018-03-18T03:08:45.754Z,999.99
2018-03-18T03:09:45.686Z,999.93
2018-03-18T03:10:45.663Z,1000.08
2018-03-18T03:11:45.640Z,999.97
2018-03-18T03:12:45.604Z,999.94
2018-03-18T03:13:45.577Z,1000.03
2018-03-18T03:14:45.554Z,1000.02
2018-03-18T03:15:45.523Z,999.99
2018-03-18T03:16:45.503Z,1000.02
2018-03-18T03:17:45.470Z,1000
2018-03-18T03:18:45.444Z,999.95
2018-03-18T03:19:45.421Z,1000
2018-03-18T03:20:45.391Z,1000.06
2018-03-18T03:21:45.369Z,999.94
2018-03-18T03:22:45.336Z,1000.03
2018-03-18T03:23:45.311Z,999.98
2018-03-18T03:24:45.284Z,999.97
2018-03-18T03:25:45.261Z,1000.02
2018-03-18T03:26:45.233Z,1000.05
2018-03-18T03:27:45.209Z,1000.04
2018-03-18T03:28:45.179Z,1000
2018-03-18T03:29:45.150Z,1000.05
2018-03-18T03:30:45.124Z,1000.04
2018-03-18T03:31:45.099Z,1000
2018-03-18T03:32:45.071Z,1000.03
2018-03-18T03:33:45.046Z,1000.07
2018-03-18T03:34:45.018Z,1000.07
2018-03-18T03:35:44.991Z,1000.03
2018-03-18T03:36:44.964Z,1000.12
2018-03-18T03:37:44.939Z,1000.08
2018-03-18T03:38:44.915Z,1000
2018-03-18T03:39:44.885Z,1000.06
2018-03-18T03:40:44.858Z,1000.07
2018-03-18T03:41:44.832Z,1000.06
2018-03-18T03:42:44.806Z,1000.08
2018-03-18T03:43:44.778Z,1000.1
2018-03-18T03:44:44.753Z,1000.11
2018-03-18T03:45:44.727Z,1000.03
2018-03-18T03:46:44.701Z,1000.08
2018-03-18T03:47:44.674Z,1000.12
2018-03-18T03:48:44.644Z,1000.04
2018-03-18T03:49:44.618Z,1000.17
2018-03-18T03:50:44.794Z,1000.13
2018-03-18T03:51:44.566Z,1000.17
2018-03-18T03:52:44.540Z,1000.12
2018-03-18T03:53:44.519Z,1000.16
2018-03-18T03:54:44.488Z,1000.13
2018-03-18T03:55:44.463Z,1000.11
2018-03-18T03:56:44.442Z,1000.15
2018-03-18T03:57:44.408Z,1000.21
2018-03-18T03:58:44.379Z,1000.17
2018-03-18T03:59:44.352Z,1000.17
2018-03-18T04:00:44.328Z,1000.21
2018-03-18T04:01:44.298Z,1000.18
2018-03-18T04:02:44.273Z,1000.18
2018-03-18T04:03:44.248Z,1000.12
2018-03-18T04:04:44.222Z,1000.22
2018-03-18T04:05:44.192Z,1000.19
2018-03-18T04:06:44.169Z,1000.22
2018-03-18T04:07:44.142Z,1000.23
2018-03-18T04:08:44.116Z,1000.28
2018-03-18T04:09:44.087Z,1000.25
2018-03-18T04:10:44.061Z,1000.27
2018-03-18T04:11:44.032Z,1000.31
2018-03-18T04:12:44.011Z,1000.27
2018-03-18T04:13:43.981Z,1000.21
2018-03-18T04:14:43.954Z,1000.22
2018-03-18T04:15:43.928Z,1000.26
2018-03-18T04:16:43.901Z,1000.3
2018-03-18T04:17:43.873Z,1000.34
2018-03-18T04:18:43.848Z,1000.23
2018-03-18T04:19:43.819Z,1000.26
2018-03-18T04:20:43.796Z,1000.2
2018-03-18T04:21:43.777Z,1000.26
2018-03-18T04:22:43.741Z,1000.32
2018-03-18T04:23:43.713Z,1000.22
2018-03-18T04:24:43.687Z,1000.34
2018-03-18T04:25:43.665Z,1000.16
2018-03-18T04:26:43.634Z,1000.33
2018-03-18T04:27:43.606Z,1000.25
2018-03-18T04:28:43.578Z,1000.27
2018-03-18T04:29:43.556Z,1000.38
2018-03-18T04:30:43.526Z,1000.31
2018-03-18T04:31:43.499Z,1000.34
2018-03-18T04:32:43.473Z,1000.35
2018-03-18T04:33:43.447Z,1000.34
2018-03-18T04:34:43.419Z,1000.25
2018-03-18T04:35:43.392Z,1000.25
2018-03-18T04:36:43.366Z,1000.37
2018-03-18T04:37:43.341Z,1000.37
2018-03-18T04:38:43.311Z,1000.37
2018-03-18T04:39:43.293Z,1000.33
2018-03-18T04:40:43.261Z,1000.35
2018-03-18T04:41:43.235Z,1000.38
2018-03-18T04:42:43.204Z,1000.39
2018-03-18T04:43:43.178Z,1000.34
2018-03-18T04:44:43.156Z,1000.43
2018-03-18T04:45:43.125Z,1000.34
2018-03-18T04:46:43.097Z,1000.27
2018-03-18T04:47:43.073Z,1000.39
2018-03-18T04:48:43.045Z,1000.33
2018-03-18T04:49:43.019Z,1000.29
2018-03-18T04:50:42.992Z,1000.39
2018-03-18T04:51:42.969Z,1000.31
2018-03-18T04:52:42.938Z,1000.38
2018-03-18T04:53:42.911Z,1000.36
2018-03-18T04:54:42.883Z,1000.34
2018-03-18T04:55:42.856Z,1000.37
2018-03-18T04:56:42.830Z,1000.43
2018-03-18T04:57:42.802Z,1000.32
2018-03-18T04:58:42.778Z,1000.33
2018-03-18T04:59:42.757Z,1000.45
2018-03-18T05:00:42.724Z,1000.34
2018-03-18T05:01:42.696Z,1000.41
2018-03-18T05:02:42.668Z,1000.45
2018-03-18T05:03:42.645Z,1000.45
2018-03-18T05:04:42.613Z,1000.26
2018-03-18T05:05:42.590Z,1000.37
2018-03-18T05:06:42.561Z,1000.38
2018-03-18T05:07:42.537Z,1000.45
2018-03-18T05:08:42.506Z,1000.41
2018-03-18T05:09:42.480Z,1000.26
2018-03-18T05:10:42.455Z,1000.42
2018-03-18T05:11:42.476Z,1000.48
2018-03-18T05:12:42.403Z,1000.4
2018-03-18T05:13:42.375Z,1000.46
2018-03-18T05:14:42.350Z,1000.47
2018-03-18T05:15:42.319Z,1000.43
2018-03-18T05:16:42.344Z,1000.31
2018-03-18T05:17:42.270Z,1000.4
2018-03-18T05:18:42.239Z,1000.41
2018-03-18T05:19:42.213Z,1000.54
2018-03-18T05:20:42.183Z,1000.53
2018-03-18T05:21:42.158Z,1000.6
2018-03-18T05:22:42.151Z,1000.57
2018-03-18T05:23:42.102Z,1000.53
2018-03-18T05:24:42.076Z,1000.56
2018-03-18T05:25:42.053Z,1000.52
2018-03-18T05:26:42.024Z,1000.52
2018-03-18T05:27:42.002Z,1000.52
2018-03-18T05:28:41.971Z,1000.35
2018-03-18T05:29:41.945Z,1000.49
2018-03-18T05:30:41.920Z,1000.59
2018-03-18T05:31:41.890Z,1000.55
2018-03-18T05:32:41.869Z,1000.59
2018-03-18T05:33:41.838Z,1000.53
2018-03-18T05:34:41.807Z,1000.57
2018-03-18T05:35:41.782Z,1000.68
2018-03-18T05:36:41.754Z,1000.54
2018-03-18T05:37:41.730Z,1000.65
2018-03-18T05:38:41.701Z,1000.57
2018-03-18T05:39:41.673Z,1000.64
2018-03-18T05:40:41.696Z,1000.66
2018-03-18T05:41:41.622Z,1000.64
2018-03-18T05:42:41.592Z,1000.72
2018-03-18T05:43:41.566Z,1000.6
2018-03-18T05:44:41.539Z,1000.6
2018-03-18T05:45:41.510Z,1000.68
2018-03-18T05:46:41.490Z,1000.65
2018-03-18T05:47:41.458Z,1000.68
2018-03-18T05:48:41.435Z,1000.59
2018-03-18T05:49:41.404Z,1000.61
2018-03-18T05:50:41.584Z,1000.68
2018-03-18T05:51:41.348Z,1000.71
2018-03-18T05:52:41.325Z,1000.64
2018-03-18T05:53:41.297Z,1000.65
2018-03-18T05:54:41.271Z,1000.68
2018-03-18T05:55:41.291Z,1000.7
2018-03-18T05:56:41.217Z,1000.7
2018-03-18T05:57:41.188Z,1000.76
2018-03-18T05:58:41.161Z,1000.7
2018-03-18T05:59:41.135Z,1000.67
2018-03-18T06:00:41.112Z,1000.72
2018-03-18T06:01:41.081Z,1000.7
2018-03-18T06:02:41.053Z,1000.73
2018-03-18T06:03:41.030Z,1000.72
2018-03-18T06:04:41.004Z,1000.74
2018-03-18T06:05:40.976Z,1000.67
2018-03-18T06:06:40.947Z,1000.66
2018-03-18T06:07:40.927Z,1000.72
2018-03-18T06:08:40.892Z,1000.71
2018-03-18T06:09:40.865Z,1000.79
2018-03-18T06:10:40.838Z,1000.79
2018-03-18T06:11:40.814Z,1000.9
2018-03-18T06:12:40.788Z,1000.81
2018-03-18T06:13:40.759Z,1000.84
2018-03-18T06:14:40.730Z,1000.86
2018-03-18T06:15:40.710Z,1000.86
2018-03-18T06:16:40.677Z,1000.8
2018-03-18T06:17:40.650Z,1000.78
2018-03-18T06:18:40.624Z,1000.76
2018-03-18T06:19:40.616Z,1000.84
2018-03-18T06:20:40.569Z,1000.91
2018-03-18T06:21:40.543Z,1000.89
2018-03-18T06:22:40.513Z,1000.94
2018-03-18T06:23:40.495Z,1000.88
2018-03-18T06:24:40.460Z,1000.9
2018-03-18T06:25:40.434Z,1000.78
2018-03-18T06:26:40.411Z,1000.89
2018-03-18T06:27:40.431Z,1000.87
2018-03-18T06:28:40.353Z,1000.95
2018-03-18T06:29:40.327Z,1001.03
2018-03-18T06:30:40.301Z,1001
2018-03-18T06:31:40.272Z,1000.95
2018-03-18T06:32:40.247Z,1000.91
2018-03-18T06:33:40.218Z,1001.03
2018-03-18T06:34:40.193Z,1000.84
2018-03-18T06:35:40.164Z,1000.92
2018-03-18T06:36:40.143Z,1000.95
2018-03-18T06:37:40.112Z,1001.02
2018-03-18T06:38:40.085Z,1001.03
2018-03-18T06:39:40.061Z,1000.99
2018-03-18T06:40:40.034Z,1001.11
2018-03-18T06:41:40.005Z,1001.05
2018-03-18T06:42:39.984Z,1001.02
2018-03-18T06:43:39.951Z,1000.94
2018-03-18T06:44:39.924Z,1001.04
2018-03-18T06:45:39.898Z,1001.04
2018-03-18T06:46:39.869Z,1001.08
2018-03-18T06:47:39.846Z,1001.09
2018-03-18T06:48:39.819Z,1001.22
2018-03-18T06:49:39.793Z,1001.17
2018-03-18T06:50:39.762Z,1001.02
2018-03-18T06:51:39.737Z,1001.15
2018-03-18T06:52:39.711Z,1001.14
2018-03-18T06:53:39.684Z,1001.13
2018-03-18T06:54:39.660Z,1001.14
2018-03-18T06:55:39.635Z,1001.03
2018-03-18T06:56:39.604Z,1001.14
2018-03-18T06:57:39.582Z,1001.11
2018-03-18T06:58:39.552Z,1001.1
2018-03-18T06:59:39.526Z,1001.12
2018-03-18T07:00:39.499Z,1001.24
2018-03-18T07:01:39.538Z,1001.06
2018-03-18T07:02:39.445Z,1001.19
2018-03-18T07:03:39.426Z,1001.27
2018-03-18T07:04:39.397Z,1001.12
2018-03-18T07:05:39.368Z,1001.22
2018-03-18T07:06:39.346Z,1001.26
2018-03-18T07:07:39.331Z,1001.08
2018-03-18T07:08:39.290Z,1001.16
2018-03-18T07:09:39.262Z,1001.32
2018-03-18T07:10:39.236Z,1001.27
2018-03-18T07:11:39.207Z,1001.3
2018-03-18T07:12:39.182Z,1001.35
2018-03-18T07:13:39.155Z,1001.31
2018-03-18T07:14:39.128Z,1001.39
2018-03-18T07:15:39.104Z,1001.29
2018-03-18T07:16:39.078Z,1001.32
2018-03-18T07:17:39.056Z,1001.28
2018-03-18T07:18:39.024Z,1001.36
2018-03-18T07:19:38.997Z,1001.35
2018-03-18T07:20:38.971Z,1001.29
2018-03-18T07:21:38.948Z,1001.33
2018-03-18T07:22:38.918Z,1001.38
2018-03-18T07:23:38.900Z,1001.49
2018-03-18T07:24:38.872Z,1001.43
2018-03-18T07:25:38.839Z,1001.41
2018-03-18T07:26:38.813Z,1001.38
2018-03-18T07:27:38.790Z,1001.42
2018-03-18T07:28:38.762Z,1001.36
2018-03-18T07:29:38.751Z,1001.46
2018-03-18T07:30:38.710Z,1001.46
2018-03-18T07:31:38.685Z,1001.48
2018-03-18T07:32:38.659Z,1001.49
2018-03-18T07:33:38.633Z,1001.48
2018-03-18T07:34:38.607Z,1001.5
2018-03-18T07:35:38.579Z,1001.53
2018-03-18T07:36:38.554Z,1001.57
2018-03-18T07:37:38.527Z,1001.54
2018-03-18T07:38:38.548Z,1001.59
2018-03-18T07:39:38.476Z,1001.56
2018-03-18T07:40:38.450Z,1001.6
2018-03-18T07:41:38.429Z,1001.64
2018-03-18T07:42:38.400Z,1001.61
2018-03-18T07:43:38.372Z,1001.64
2018-03-18T07:44:38.346Z,1001.65
2018-03-18T07:45:38.320Z,1001.51
2018-03-18T07:46:38.293Z,1001.68
2018-03-18T07:47:38.269Z,1001.73
2018-03-18T07:48:38.240Z,1001.65
2018-03-18T07:49:38.217Z,1001.61
2018-03-18T07:50:38.396Z,1001.68
2018-03-18T07:51:38.170Z,1001.69
2018-03-18T07:52:38.139Z,1001.66
2018-03-18T07:53:38.113Z,1001.65
2018-03-18T07:54:38.089Z,1001.61
2018-03-18T07:55:38.059Z,1001.78
2018-03-18T07:56:38.035Z,1001.72
2018-03-18T07:57:38.008Z,1001.75
2018-03-18T07:58:37.985Z,1001.82
2018-03-18T07:59:38.229Z,1001.72
2018-03-18T08:00:37.936Z,1001.77
2018-03-18T08:01:37.907Z,1001.81
2018-03-18T08:02:37.882Z,1001.7
2018-03-18T08:03:37.855Z,1001.83
2018-03-18T08:04:37.829Z,1001.79
2018-03-18T08:05:37.803Z,1001.79
2018-03-18T08:06:37.779Z,1001.87
2018-03-18T08:07:37.751Z,1001.79
2018-03-18T08:08:37.727Z,1001.66
2018-03-18T08:09:37.703Z,1001.94
2018-03-18T08:10:37.675Z,1001.77
2018-03-18T08:11:37.651Z,1001.89
2018-03-18T08:12:37.624Z,1001.78
2018-03-18T08:13:37.600Z,1001.84
2018-03-18T08:14:37.572Z,1001.86
2018-03-18T08:15:37.550Z,1001.87
2018-03-18T08:16:37.524Z,1001.86
2018-03-18T08:17:37.502Z,1001.87
2018-03-18T08:18:37.475Z,1001.97
2018-03-18T08:19:37.448Z,1001.87
2018-03-18T08:20:37.425Z,1002
2018-03-18T08:21:37.396Z,1001.88
2018-03-18T08:22:37.371Z,1001.95
2018-03-18T08:23:37.346Z,1002
2018-03-18T08:24:37.320Z,1001.98
2018-03-18T08:25:37.299Z,1001.95
2018-03-18T08:26:37.273Z,1001.96
2018-03-18T08:27:37.253Z,1001.95
2018-03-18T08:28:37.219Z,1001.97
2018-03-18T08:29:37.194Z,1002.05
2018-03-18T08:30:37.172Z,1001.98
2018-03-18T08:31:37.144Z,1001.97
2018-03-18T08:32:37.120Z,1001.89
2018-03-18T08:33:37.097Z,1002.01
2018-03-18T08:34:37.072Z,1002.02
2018-03-18T08:35:37.044Z,1002.01
2018-03-18T08:36:37.024Z,1001.99
2018-03-18T08:37:36.995Z,1001.98
2018-03-18T08:38:36.974Z,1002.05
2018-03-18T08:39:36.947Z,1002.15
2018-03-18T08:40:36.923Z,1002.04
2018-03-18T08:41:36.898Z,1001.95
2018-03-18T08:42:36.877Z,1002.01
2018-03-18T08:43:36.848Z,1002.05
2018-03-18T08:44:36.827Z,1002.12
2018-03-18T08:45:36.799Z,1002
2018-03-18T08:46:36.827Z,1001.89
2018-03-18T08:47:36.753Z,1002.06
2018-03-18T08:48:36.726Z,1002.04
2018-03-18T08:49:36.705Z,1002.15
2018-03-18T08:50:36.678Z,1002.08
2018-03-18T08:51:36.703Z,1002.13
2018-03-18T08:52:36.634Z,1002.15
2018-03-18T08:53:36.608Z,1002.12
2018-03-18T08:54:36.583Z,1002.13
2018-03-18T08:55:36.564Z,1002.07
2018-03-18T08:56:36.539Z,1002.22
2018-03-18T08:57:36.517Z,1002.09
2018-03-18T08:58:36.490Z,1002.07
2018-03-18T08:59:36.477Z,1002.1
2018-03-18T09:00:36.445Z,1002.24
2018-03-18T09:01:36.422Z,1002.13
2018-03-18T09:02:36.397Z,1002.15
2018-03-18T09:03:36.375Z,1002.18
2018-03-18T09:04:36.356Z,1002.17
2018-03-18T09:05:36.329Z,1002.08
2018-03-18T09:06:36.348Z,1002.11
2018-03-18T09:07:36.283Z,1002.22
2018-03-18T09:08:36.258Z,1002.17
2018-03-18T09:09:36.236Z,1002.24
2018-03-18T09:10:36.213Z,1002.16
2018-03-18T09:11:36.198Z,1002.19
2018-03-18T09:12:36.166Z,1002.21
2018-03-18T09:13:36.145Z,1002.21
2018-03-18T09:14:36.122Z,1002.17
2018-03-18T09:15:36.099Z,1002.17
2018-03-18T09:16:36.077Z,1002.21
2018-03-18T09:17:36.054Z,1002.24
2018-03-18T09:18:36.030Z,1002.15
2018-03-18T09:19:36.007Z,1002.18
2018-03-18T09:20:35.984Z,1002.16
2018-03-18T09:21:35.963Z,1002.21
2018-03-18T09:22:35.943Z,1002.16
2018-03-18T09:23:35.913Z,1002.17
2018-03-18T09:24:35.892Z,1002.2
2018-03-18T09:25:35.872Z,1002.18
2018-03-18T09:26:35.847Z,1002.13
2018-03-18T09:27:35.838Z,1002.18
2018-03-18T09:28:35.801Z,1002.17
2018-03-18T09:29:35.791Z,1002.19
2018-03-18T09:30:35.758Z,1002.16
2018-03-18T09:31:35.735Z,1002.2
2018-03-18T09:32:35.707Z,1002.02
2018-03-18T09:33:35.688Z,1002.16
2018-03-18T09:34:35.661Z,1002.26
2018-03-18T09:35:35.672Z,1002.17
2018-03-18T09:36:35.615Z,1002.19
2018-03-18T09:37:35.596Z,1002.19
2018-03-18T09:38:35.572Z,1002.17
2018-03-18T09:39:35.548Z,1002.19
2018-03-18T09:40:35.530Z,1002.24
2018-03-18T09:41:35.502Z,1002.23
2018-03-18T09:42:35.481Z,1002.31
2018-03-18T09:43:35.502Z,1002.35
2018-03-18T09:44:35.435Z,1002.28
2018-03-18T09:45:35.413Z,1002.24
2018-03-18T09:46:35.392Z,1002.27
2018-03-18T09:47:35.367Z,1002.27
2018-03-18T09:48:35.388Z,1002.26
2018-03-18T09:49:35.328Z,1002.23
2018-03-18T09:50:35.507Z,1002.27
2018-03-18T09:51:35.281Z,1002.31
2018-03-18T09:52:35.259Z,1002.3
2018-03-18T09:53:35.236Z,1002.33
2018-03-18T09:54:35.214Z,1002.28
2018-03-18T09:55:35.196Z,1002.29
2018-03-18T09:56:35.174Z,1002.31
2018-03-18T09:57:35.155Z,1002.33
2018-03-18T09:58:35.133Z,1002.38
2018-03-18T09:59:35.111Z,1002.3
2018-03-18T10:00:35.093Z,1002.32
2018-03-18T10:01:35.074Z,1002.32
2018-03-18T10:02:35.067Z,1002.38
2018-03-18T10:03:35.030Z,1002.41
2018-03-18T10:04:35.010Z,1002.37
2018-03-18T10:05:34.989Z,1002.35
2018-03-18T10:06:34.972Z,1002.36
2018-03-18T10:07:34.946Z,1002.33
2018-03-18T10:08:34.929Z,1002.34
2018-03-18T10:09:34.910Z,1002.25
2018-03-18T10:10:34.884Z,1002.38
2018-03-18T10:11:34.864Z,1002.41
2018-03-18T10:12:34.838Z,1002.42
2018-03-18T10:13:34.821Z,1002.37
2018-03-18T10:14:34.796Z,1002.35
2018-03-18T10:15:34.774Z,1002.46
2018-03-18T10:16:34.754Z,1002.43
2018-03-18T10:17:34.738Z,1002.41
2018-03-18T10:18:34.716Z,1002.41
2018-03-18T10:19:34.688Z,1002.43
2018-03-18T10:20:34.665Z,1002.46
2018-03-18T10:21:34.666Z,1002.44
2018-03-18T10:22:34.622Z,1002.49
2018-03-18T10:23:34.602Z,1002.48
2018-03-18T10:24:34.578Z,1002.46
2018-03-18T10:25:34.613Z,1002.57
2018-03-18T10:26:34.537Z,1002.46
2018-03-18T10:27:34.514Z,1002.5
2018-03-18T10:28:34.489Z,1002.47
2018-03-18T10:29:34.467Z,1002.45
2018-03-18T10:30:34.446Z,1002.47
2018-03-18T10:31:34.424Z,1002.44
2018-03-18T10:32:34.413Z,1002.42
2018-03-18T10:33:34.380Z,1002.42
2018-03-18T10:34:34.363Z,1002.39
2018-03-18T10:35:34.338Z,1002.41
2018-03-18T10:36:34.315Z,1002.45
2018-03-18T10:37:34.292Z,1002.4
2018-03-18T10:38:34.273Z,1002.38
2018-03-18T10:39:34.280Z,1002.37
2018-03-18T10:40:34.227Z,1002.44
2018-03-18T10:41:34.204Z,1002.46
2018-03-18T10:42:34.185Z,1002.41
2018-03-18T10:43:34.162Z,1002.34
2018-03-18T10:44:34.148Z,1002.46
2018-03-18T10:45:34.120Z,1002.39
2018-03-18T10:46:34.099Z,1002.42
2018-03-18T10:47:34.076Z,1002.34
2018-03-18T10:48:34.057Z,1002.42
2018-03-18T10:49:34.034Z,1002.38
2018-03-18T10:50:34.015Z,1002.39
2018-03-18T10:51:33.993Z,1002.36
2018-03-18T10:52:33.972Z,1002.33
2018-03-18T10:53:33.986Z,1002.46
2018-03-18T10:54:33.931Z,1002.36
2018-03-18T10:55:33.909Z,1002.3
2018-03-18T10:56:33.901Z,1002.44
2018-03-18T10:57:33.874Z,1002.4
2018-03-18T10:58:33.849Z,1002.43
2018-03-18T10:59:33.825Z,1002.38
2018-03-18T11:00:33.805Z,1002.4
2018-03-18T11:01:33.786Z,1002.38
2018-03-18T11:02:33.763Z,1002.37
2018-03-18T11:03:33.743Z,1002.44
2018-03-18T11:04:33.723Z,1002.41
2018-03-18T11:05:33.704Z,1002.43
2018-03-18T11:06:33.681Z,1002.42
2018-03-18T11:07:33.659Z,1002.52
2018-03-18T11:08:33.640Z,1002.45
2018-03-18T11:09:33.619Z,1002.43
2018-03-18T11:10:33.600Z,1002.46
2018-03-18T11:11:33.594Z,1002.42
2018-03-18T11:12:33.562Z,1002.47
2018-03-18T11:13:33.539Z,1002.42
2018-03-18T11:14:33.522Z,1002.45
2018-03-18T11:15:33.505Z,1002.41
2018-03-18T11:16:33.481Z,1002.39
2018-03-18T11:17:33.475Z,1002.43
2018-03-18T11:18:33.445Z,1002.47
2018-03-18T11:19:33.427Z,1002.49
2018-03-18T11:20:33.409Z,1002.44
2018-03-18T11:21:33.394Z,1002.44
2018-03-18T11:22:33.377Z,1002.45
2018-03-18T11:23:33.361Z,1002.5
2018-03-18T11:24:33.343Z,1002.44
2018-03-18T11:25:33.328Z,1002.48
2018-03-18T11:26:33.312Z,1002.47
2018-03-18T11:27:33.299Z,1002.35
2018-03-18T11:28:33.283Z,1002.44
2018-03-18T11:29:33.275Z,1002.39
2018-03-18T11:30:33.258Z,1002.31
2018-03-18T11:31:33.240Z,1002.47
2018-03-18T11:32:33.226Z,1002.43
2018-03-18T11:33:33.211Z,1002.35
2018-03-18T11:34:33.198Z,1002.43
2018-03-18T11:35:33.187Z,1002.47
2018-03-18T11:36:33.167Z,1002.31
2018-03-18T11:37:33.156Z,1002.46
2018-03-18T11:38:33.141Z,1002.41
2018-03-18T11:39:33.127Z,1002.43
2018-03-18T11:40:33.115Z,1002.47
2018-03-18T11:41:33.100Z,1002.39
2018-03-18T11:42:33.083Z,1002.37
2018-03-18T11:43:33.119Z,1002.33
2018-03-18T11:44:33.055Z,1002.37
2018-03-18T11:45:33.039Z,1002.39
2018-03-18T11:46:33.034Z,1002.43
2018-03-18T11:47:33.011Z,1002.41
2018-03-18T11:48:32.994Z,1002.42
2018-03-18T11:49:33.012Z,1002.38
2018-03-18T11:50:32.968Z,1002.53
2018-03-18T11:51:32.950Z,1002.46
2018-03-18T11:52:32.935Z,1002.47
2018-03-18T11:53:32.919Z,1002.34
2018-03-18T11:54:32.904Z,1002.51
2018-03-18T11:55:32.893Z,1002.41
2018-03-18T11:56:32.874Z,1002.47
2018-03-18T11:57:32.868Z,1002.46
2018-03-18T11:58:32.845Z,1002.43
2018-03-18T11:59:32.830Z,1002.45
2018-03-18T12:00:32.816Z,1002.38
2018-03-18T12:01:32.803Z,1002.47
2018-03-18T12:02:32.790Z,1002.39
2018-03-18T12:03:32.774Z,1002.38
2018-03-18T12:04:32.760Z,1002.34
2018-03-18T12:05:32.752Z,1002.48
2018-03-18T12:06:32.760Z,1002.48
2018-03-18T12:07:32.719Z,1002.37
2018-03-18T12:08:32.708Z,1002.4